Latest Weather Observations for Hogan Island

IDT60801

Issued at 8:35 pm EST Thursday 24 July 2014 (issued every 30 minutes, with the page automatically refreshed every 10 minutes)

About weather observations | Map of weather stations | Latest weather observations for TAS | Other Formats
Station Details ID: 200838 Name: HOGAN ISLAND Lat: -39.22 Lon: 146.98 Height: 116.0 m
Data from the previous 72 hours. | See also: Recent months at Hogan Island
Date/Time
EST
Temp
°C
App
Temp
°C
Dew
Point
Rel
Hum
%
Delta-T
°C
Wind Press
QNH
hPa
Press
MSL
hPa
Rain
since 9 am
mm
Dir
 
Spd
km/h
Gust
km/h
Spd
kts
Gust
kts
24/08:30pm 11.4 7.0 8.8 84 1.3 NE 22 30 12 16 1016.1 - 0.0
24/08:00pm 11.0 7.8 8.4 84 1.3 ENE 15 22 8 12 1015.9 - 0.0
24/07:30pm 11.0 8.5 8.4 84 1.3 E 11 15 6 8 1015.6 - 0.0
24/07:00pm 11.0 8.9 8.2 83 1.4 E 9 13 5 7 1015.7 - 0.0
24/06:30pm 10.8 9.0 7.9 82 1.4 NNE 7 11 4 6 1015.9 - 0.0
24/06:00pm 11.0 7.7 8.2 83 1.4 NNW 15 19 8 10 1015.9 1016.0 0.0
24/05:30pm 10.7 7.0 8.1 84 1.3 N 17 20 9 11 1015.8 - 0.0
24/05:00pm 10.5 6.4 7.9 84 1.3 NNE 19 20 10 11 1015.7 - 0.0
24/04:30pm 10.7 6.6 7.9 83 1.4 NNE 19 22 10 12 1015.7 - 0.0
24/04:00pm 10.8 7.4 7.7 81 1.5 NE 15 19 8 10 1015.3 - 0.0
24/03:30pm 11.5 9.4 8.2 80 1.6 NE 9 13 5 7 1015.2 - 0.0
24/03:00pm 11.4 8.2 8.3 81 1.5 N 15 17 8 9 1015.2 1015.3 0.0
24/02:30pm 11.5 8.4 8.7 83 1.4 N 15 17 8 9 1015.1 - 0.0
24/02:00pm 11.3 8.1 8.3 82 1.5 NNE 15 17 8 9 1015.1 - 0.0
24/01:30pm 11.1 7.4 7.8 80 1.6 NNE 17 19 9 10 1015.3 - 0.0
24/01:00pm 11.4 7.3 7.9 79 1.7 NE 19 20 10 11 1015.5 - 0.0
24/12:30pm 11.4 6.6 7.5 77 1.9 NNE 22 24 12 13 1016.3 - 0.0
24/12:00pm 11.6 6.8 7.5 76 2.0 NE 22 26 12 14 1016.7 1016.8 0.0
24/11:30am 12.4 7.7 9.1 80 1.7 NE 24 28 13 15 1017.2 - 0.0
24/11:00am 12.5 8.2 9.5 82 1.5 ENE 22 26 12 14 1017.1 - 0.0
24/10:30am 13.3 8.9 10.5 83 1.5 ENE 24 28 13 15 1017.5 - 0.0
24/10:00am 12.9 8.9 10.6 86 1.2 ENE 22 26 12 14 1017.6 - 0.0
24/09:30am 12.2 8.6 10.6 90 0.8 NE 20 24 11 13 1017.6 - 0.0
24/09:00am 11.2 7.4 9.9 92 0.7 NE 20 22 11 12 1017.8 1018.0 0.0
24/08:30am 10.8 7.0 9.7 93 0.6 NE 20 24 11 13 1017.7 - 0.0
24/08:00am 10.7 7.0 9.5 92 0.6 NE 19 22 10 12 1017.8 - 0.0
24/07:30am 10.5 6.6 9.3 92 0.6 NNE 20 24 11 13 1017.8 - 0.0
24/07:00am 11.1 6.5 9.7 91 0.7 NE 24 30 13 16 1017.8 - 0.0
24/06:30am 11.2 6.2 9.6 90 0.8 NE 26 30 14 16 1017.5 - 0.0
24/06:00am 11.5 6.2 9.8 89 0.9 ENE 28 32 15 17 1017.3 1017.4 0.0
24/05:30am 11.6 5.5 9.7 88 1.0 E 32 37 17 20 1017.0 - 0.0
24/05:00am 11.7 5.5 9.9 89 0.9 ENE 33 39 18 21 1017.1 - 0.0
24/04:30am 11.7 5.6 9.9 89 0.9 ENE 32 35 17 19 1017.2 - 0.0
24/04:00am 11.5 5.8 9.8 89 0.9 ENE 30 33 16 18 1017.5 - 0.0
24/03:30am 11.4 5.7 9.7 89 0.9 ENE 30 33 16 18 1017.7 - 0.0
24/03:00am 11.3 6.3 9.6 89 0.9 NE 26 32 14 17 1017.9 1018.1 0.0
24/02:30am 11.3 5.5 9.6 89 0.9 NE 30 33 16 18 1017.9 - 0.0
24/02:00am 11.0 5.9 9.3 89 0.9 NE 26 30 14 16 1018.2 - 0.0
24/01:30am 11.1 5.7 9.5 90 0.8 NE 28 32 15 17 1018.2 - 0.0
24/01:00am 10.9 5.4 9.3 90 0.8 NE 28 32 15 17 1018.4 - 0.0
24/12:30am 11.0 6.0 9.4 90 0.8 NE 26 30 14 16 1018.6 - 0.0
24/12:00am 11.2 5.4 9.6 90 0.8 ENE 30 33 16 18 1018.9 1019.1 0.0
 
Date/Time
EST
Temp
°C
App
Temp
°C
Dew
Point
Rel
Hum
%
Delta-T
°C
Wind Press
QNH
hPa
Press
MSL
hPa
Rain
since 9 am
mm
Dir
 
Spd
km/h
Gust
km/h
Spd
kts
Gust
kts
23/11:30pm 11.1 4.9 9.5 90 0.8 ENE 32 37 17 20 1019.4 - 0.0
23/11:00pm 11.2 5.1 9.6 90 0.8 ENE 32 35 17 19 1019.9 - 0.0
23/10:30pm 10.9 5.1 9.3 90 0.8 ENE 30 33 16 18 1020.2 - 0.0
23/10:00pm 10.8 5.3 9.2 90 0.8 ENE 28 32 15 17 1020.7 - 0.0
23/09:30pm 10.9 5.4 9.3 90 0.8 ENE 28 32 15 17 1020.9 - 0.0
23/09:00pm 10.7 5.5 9.0 89 0.8 ENE 26 30 14 16 1020.9 1021.0 0.0
23/08:30pm 10.6 6.2 8.9 89 0.8 ENE 22 26 12 14 1020.8 - 0.0
23/08:00pm 10.3 5.5 8.7 90 0.8 ENE 24 28 13 15 1020.8 - 0.0
23/07:30pm 10.5 6.5 8.9 90 0.8 E 20 24 11 13 1020.9 - 0.0
23/07:00pm 10.5 6.1 8.8 89 0.8 E 22 28 12 15 1020.9 - 0.0
23/06:30pm 10.3 6.2 8.6 89 0.8 E 20 26 11 14 1020.8 - 0.0
23/06:00pm 10.1 5.8 8.0 87 1.0 E 20 24 11 13 1020.7 1020.8 0.0
23/05:30pm 10.2 5.9 8.0 86 1.1 E 20 24 11 13 1020.4 - 0.0
23/05:00pm 10.1 5.7 7.5 84 1.2 ENE 20 24 11 13 1020.4 - 0.0
23/04:30pm 10.2 6.3 7.1 81 1.5 ENE 17 20 9 11 1020.6 - 0.0
23/04:00pm 10.5 6.9 6.8 78 1.8 NE 15 19 8 10 1020.8 - 0.0
23/03:30pm 11.6 7.4 7.5 76 2.0 ENE 19 20 10 11 1020.6 - 0.0
23/03:00pm 12.1 7.9 7.6 74 2.2 ENE 19 22 10 12 1020.6 1020.7 0.0
23/02:30pm 12.7 9.4 8.0 73 2.3 ENE 15 20 8 11 1020.8 - 0.0
23/02:00pm 12.9 9.6 8.0 72 2.4 ENE 15 20 8 11 1021.2 - 0.0
23/01:30pm 12.9 9.5 7.8 71 2.5 ENE 15 20 8 11 1021.6 - 0.0
23/01:00pm 12.8 9.0 7.5 70 2.6 ENE 17 20 9 11 1021.8 - 0.0
23/12:30pm 12.9 9.1 7.4 69 2.7 ENE 17 20 9 11 1022.3 - 0.0
23/12:00pm 12.8 9.3 7.3 69 2.7 ENE 15 19 8 10 1022.8 1022.9 0.0
23/11:30am 12.7 8.9 7.4 70 2.6 ENE 17 19 9 10 1023.3 - 0.0
23/11:00am 12.9 9.4 7.1 68 2.8 ENE 15 20 8 11 1023.8 - 0.0
23/10:30am 12.7 9.2 7.0 68 2.8 ENE 15 19 8 10 1024.0 - 0.0
23/10:00am 12.3 10.0 5.9 65 3.0 E 7 13 4 7 1024.2 - 0.0
23/09:30am 12.3 9.2 7.4 72 2.4 ENE 13 15 7 8 1024.3 - 0.0
23/09:00am 10.9 8.2 7.2 78 1.8 ENE 11 13 6 7 1024.5 1024.6 0.0
23/08:30am 10.4 7.2 6.7 78 1.8 E 13 17 7 9 1024.3 - 0.0
23/08:00am 10.8 8.1 7.3 79 1.7 ENE 11 15 6 8 1024.1 - 0.0
23/07:30am 9.3 6.2 5.7 78 1.7 ESE 11 11 6 6 1023.9 - 0.0
23/07:00am 9.4 7.0 5.4 76 1.8 SE 7 11 4 6 1023.9 - 0.0
23/06:30am 9.2 6.5 5.4 77 1.7 SSE 9 11 5 6 1023.6 - 0.0
23/06:00am 9.0 5.8 5.2 77 1.7 SSE 11 15 6 8 1023.4 1023.5 0.0
23/05:30am 9.0 5.8 5.0 76 1.8 SSE 11 13 6 7 1023.4 - 0.0
23/05:00am 8.9 6.0 4.7 75 1.9 S 9 13 5 7 1023.4 - 0.0
23/04:30am 8.8 5.9 4.6 75 1.9 SE 9 11 5 6 1023.5 - 0.0
23/04:00am 9.2 6.3 4.8 74 2.0 SE 9 11 5 6 1023.5 - 0.0
23/03:30am 9.6 7.1 5.0 73 2.1 SE 7 9 4 5 1023.6 - 0.0
23/03:00am 9.9 8.8 5.1 72 2.2 CALM 0 0 0 0 1023.7 1023.8 0.0
23/02:30am 10.1 9.0 5.1 71 2.3 CALM 0 0 0 0 1024.1 - 0.0
23/02:00am 10.0 8.9 5.2 72 2.2 CALM 0 0 0 0 1024.2 - 0.0
23/01:30am 10.0 8.9 5.2 72 2.2 CALM 0 0 0 0 1024.1 - 0.0
23/01:00am 9.8 8.7 5.0 72 2.2 CALM 0 0 0 0 1024.1 - 0.0
23/12:30am 9.8 8.0 5.2 73 2.1 ESE 4 9 2 5 1024.1 - 0.0
23/12:00am 9.8 8.8 5.4 74 2.0 CALM 0 0 0 0 1024.4 1024.5 0.0
 
Date/Time
EST
Temp
°C
App
Temp
°C
Dew
Point
Rel
Hum
%
Delta-T
°C
Wind Press
QNH
hPa
Press
MSL
hPa
Rain
since 9 am
mm
Dir
 
Spd
km/h
Gust
km/h
Spd
kts
Gust
kts
22/11:30pm 10.1 9.2 5.9 75 1.9 CALM 0 0 0 0 1024.7 - 0.0
22/11:00pm 9.7 7.5 5.5 75 1.9 SE 6 11 3 6 1024.8 - 0.0
22/10:30pm 9.4 6.7 5.4 76 1.8 SSE 9 11 5 6 1024.8 - 0.0
22/10:00pm 9.3 6.9 5.1 75 1.9 SE 7 11 4 6 1024.9 - 0.0
22/09:30pm 9.1 5.9 4.9 75 1.9 SE 11 13 6 7 1024.9 - 0.0
22/09:00pm 9.3 6.5 5.1 75 1.9 SE 9 13 5 7 1024.8 1025.0 0.0
22/08:30pm 8.9 5.2 4.7 75 1.9 SE 13 15 7 8 1024.7 - 0.0
22/08:00pm 9.1 5.9 4.9 75 1.9 SE 11 15 6 8 1024.7 - 0.0
22/07:30pm 9.2 6.0 5.0 75 1.9 SE 11 13 6 7 1024.7 - 0.0
22/07:00pm 9.1 5.9 4.9 75 1.9 SE 11 13 6 7 1024.7 - 0.0
22/06:30pm 9.1 5.8 4.7 74 2.0 S 11 15 6 8 1024.7 - 0.0
22/06:00pm 9.1 5.8 4.7 74 2.0 S 11 15 6 8 1024.6 1024.7 0.0
22/05:30pm 9.7 6.9 5.3 74 2.0 S 9 11 5 6 1024.5 - 0.0
22/05:00pm 9.8 7.0 5.2 73 2.1 SSW 9 11 5 6 1024.5 - 0.0
22/04:30pm 10.7 8.0 5.5 70 2.4 SSW 9 11 5 6 1024.4 - 0.0
22/04:00pm 11.8 8.1 6.1 68 2.7 SW 15 19 8 10 1024.4 - 0.0
22/03:30pm 12.1 7.8 5.3 63 3.2 SW 17 20 9 11 1024.4 - 0.0
22/03:00pm 12.4 8.3 6.2 66 2.9 SW 17 22 9 12 1024.4 1024.5 0.0
22/02:30pm 12.6 8.5 6.2 65 3.0 SW 17 22 9 12 1024.2 - 0.0
22/02:00pm 12.6 8.5 6.0 64 3.1 SW 17 22 9 12 1024.3 - 0.0
22/01:30pm 12.8 8.8 6.6 66 3.0 SW 17 20 9 11 1024.5 - 0.0
22/01:00pm 13.1 9.2 7.1 67 2.9 SW 17 20 9 11 1024.7 - 0.0
22/12:30pm 13.0 9.5 7.0 67 2.9 SW 15 20 8 11 1025.0 - 0.0
22/12:00pm 12.7 9.1 6.7 67 2.9 SW 15 20 8 11 1025.3 1025.5 0.0
22/11:30am 13.1 9.5 6.9 66 3.0 SSW 15 19 8 10 1025.7 - 0.0
22/11:00am 12.5 9.2 6.5 67 2.9 SSW 13 17 7 9 1026.0 - 0.0
22/10:30am 12.3 9.9 6.8 69 2.6 SSW 9 13 5 7 1026.2 - 0.0
22/10:00am 12.3 9.6 7.4 72 2.4 SSW 11 13 6 7 1026.2 - 0.0
22/09:30am 11.8 9.4 7.1 73 2.3 S 9 13 5 7 1026.1 - 0.0
22/09:00am 11.0 8.2 6.9 76 1.9 S 11 13 6 7 1026.1 1026.3 0.0
22/08:30am 10.4 7.5 6.4 76 1.9 S 11 15 6 8 1025.8 - 0.0
22/08:00am 9.4 6.3 5.4 76 1.8 S 11 13 6 7 1025.6 - 0.0
22/07:30am 8.7 5.4 4.7 76 1.8 SSW 11 13 6 7 1025.4 - 0.0
22/07:00am 8.7 5.5 4.9 77 1.7 SSW 11 13 6 7 1025.0 - 0.0
22/06:30am 8.5 5.2 4.7 77 1.7 S 11 15 6 8 1024.9 - 0.0
22/06:00am 8.8 6.0 5.0 77 1.7 SSW 9 11 5 6 1024.7 1024.8 0.0
22/05:30am 8.7 5.5 4.9 77 1.7 S 11 13 6 7 1024.5 - 0.0
22/05:00am 9.0 6.2 5.0 76 1.8 S 9 11 5 6 1024.5 - 0.0
22/04:30am 8.8 5.5 4.8 76 1.8 SSE 11 13 6 7 1024.5 - 0.0
22/04:00am 8.8 5.5 4.6 75 1.9 SSE 11 13 6 7 1024.4 - 0.0
22/03:30am 8.9 5.7 4.9 76 1.8 S 11 13 6 7 1024.6 - 0.0
22/03:00am 8.9 5.7 4.9 76 1.8 SSE 11 13 6 7 1024.6 1024.7 0.0
22/02:30am 8.7 5.4 4.7 76 1.8 SSE 11 15 6 8 1024.5 - 0.0
22/02:00am 8.9 5.7 4.9 76 1.8 SSE 11 15 6 8 1024.6 - 0.0
22/01:30am 8.9 5.7 4.9 76 1.8 SSE 11 15 6 8 1024.6 - 0.0
22/01:00am 9.1 6.3 5.1 76 1.8 SE 9 11 5 6 1024.8 - 0.0
22/12:30am 9.5 6.7 5.3 75 1.9 SSE 9 9 5 5 1024.9 - 0.0
22/12:00am 9.3 6.8 4.9 74 2.0 SSE 7 11 4 6 1025.1 1025.3 0.0
 
Date/Time
EST
Temp
°C
App
Temp
°C
Dew
Point
Rel
Hum
%
Delta-T
°C
Wind Press
QNH
hPa
Press
MSL
hPa
Rain
since 9 am
mm
Dir
 
Spd
km/h
Gust
km/h
Spd
kts
Gust
kts
21/11:30pm 9.2 6.3 4.8 74 2.0 SSE 9 13 5 7 1025.2 - 0.0
21/11:00pm 9.1 5.8 4.7 74 2.0 S 11 13 6 7 1025.3 - 0.0
21/10:30pm 8.8 5.1 4.2 73 2.0 SSE 13 15 7 8 1025.3 - 0.0
21/10:00pm 9.0 5.3 4.6 74 2.0 SE 13 15 7 8 1025.3 - 0.0
21/09:30pm 8.6 4.8 3.8 72 2.1 SE 13 15 7 8 1025.3 - 0.0
21/09:00pm 8.9 5.4 3.7 70 2.3 ESE 11 13 6 7 1025.4 1025.6 0.0

Other Formats:

Comma delimited format used in spreadsheet applications
http://www.bom.gov.au/fwo/IDT60801/IDT60801.94949.axf

JavaScript Object Notation format (JSON) in row-major order
http://www.bom.gov.au/fwo/IDT60801/IDT60801.94949.json